Time;durP1;ratioP1;P1;durP2;ratioP2;P2;SDS_P1;SDS_P2;PMS_P1;PMS_P2;Temp;Humidity;BMP_temperature;BMP_pressure;BME280_temperature;BME280_humidity;BME280_pressure;Samples;Min_cycle;Max_cycle;Signal;HPM_P1;HPM_P2
2023/05/10 00:02:52;;;;;;;;;;;;;;;11.09;75.96;100151.31;5091552;28;19939;-41
2023/05/10 00:05:17;;;;;;;;;;;;;;;11.52;74.99;100151.09;5091205;28;19912;-41
2023/05/10 00:07:46;;;;;;;;;;;;;;;11.48;74.90;100165.00;5091544;28;20380;-43
2023/05/10 00:10:11;;;;;;;;;;;;;;;11.41;75.97;100148.19;5091476;28;20404;-42
2023/05/10 00:12:37;;;;;;;;;;;;;;;11.48;76.06;100149.00;5091601;28;20005;-42
2023/05/10 00:15:02;;;;;;;;;;;;;;;11.68;76.07;100149.09;5091138;28;20276;-43
2023/05/10 00:17:28;;;;;;;;;;;;;;;12.01;74.63;100146.50;5092007;28;19944;-43
2023/05/10 00:19:53;;;;;;;;;;;;;;;11.38;77.08;100138.72;5091706;28;20225;-42
2023/05/10 00:22:18;;;;;;;;;;;;;;;11.43;77.42;100146.13;5091261;28;19982;-42
2023/05/10 00:24:44;;;;;;;;;;;;;;;11.31;78.64;100159.22;5091708;28;20011;-43
2023/05/10 00:27:09;;;;;;;;;;;;;;;11.33;78.99;100143.84;5091149;28;19920;-43
2023/05/10 00:29:34;;;;;;;;;;;;;;;11.09;79.24;100148.63;5091078;28;19973;-42
2023/05/10 00:31:59;;;;;;;;;;;;;;;11.27;79.58;100164.13;5091292;28;20202;-42
2023/05/10 00:34:25;;;;;;;;;;;;;;;11.29;79.51;100135.44;5090942;28;19916;-42
2023/05/10 00:36:50;;;;;;;;;;;;;;;10.99;80.64;100134.06;5091396;28;19916;-42
2023/05/10 00:39:15;;;;;;;;;;;;;;;11.20;80.86;100130.47;5091362;28;19920;-42
2023/05/10 00:41:41;;;;;;;;;;;;;;;11.25;80.15;100133.34;5091605;28;19954;-42
2023/05/10 00:44:06;;;;;;;;;;;;;;;11.43;80.13;100132.81;5091534;28;19912;-42
2023/05/10 00:46:31;;;;;;;;;;;;;;;11.30;79.75;100125.59;5091028;28;19912;-42
2023/05/10 00:48:57;;;;;;;;;;;;;;;11.27;80.20;100123.31;5091233;28;19912;-42
2023/05/10 00:51:23;;;;;;;;;;;;;;;11.09;82.41;100129.19;5091375;28;20362;-42
2023/05/10 00:53:49;;;;;;;;;;;;;;;11.27;81.03;100121.47;5090961;28;19912;-42
2023/05/10 00:56:15;;;;;;;;;;;;;;;10.93;82.25;100125.81;5091346;28;19912;-43
2023/05/10 00:58:40;;;;;;;;;;;;;;;11.08;81.71;100131.03;5091221;28;20017;-42
2023/05/10 01:01:06;;;;;;;;;;;;;;;10.74;83.57;100129.19;5091094;28;19924;-42
2023/05/10 01:03:32;;;;;;;;;;;;;;;10.89;82.04;100118.41;5093485;28;19916;-43
2023/05/10 01:05:57;;;;;;;;;;;;;;;10.81;82.40;100126.56;5095031;28;19912;-42
2023/05/10 01:08:23;;;;;;;;;;;;;;;10.78;82.98;100143.75;5095045;28;20220;-42
2023/05/10 01:10:49;;;;;;;;;;;;;;;10.97;82.13;100128.91;5094913;28;20390;-42
2023/05/10 01:13:18;;;;;;;;;;;;;;;11.19;81.07;100134.13;5095024;28;19912;-42
2023/05/10 01:15:44;;;;;;;;;;;;;;;10.92;81.87;100142.81;5094639;28;19920;-43
2023/05/10 01:18:10;;;;;;;;;;;;;;;11.53;79.49;100135.91;5094819;28;19917;-42
2023/05/10 01:20:43;;;;;;;;;;;;;;;11.48;79.08;100133.03;5094573;28;19916;-43
2023/05/10 01:23:30;;;;;;;;;;;;;;;11.65;78.82;100138.81;5094848;28;19996;-42
2023/05/10 01:26:14;;;;;;;;;;;;;;;11.95;77.39;100141.19;5094601;28;19920;-42
2023/05/10 01:28:56;;;;;;;;;;;;;;;11.77;78.08;100147.06;5094617;28;20269;-43
2023/05/10 01:31:40;;;;;;;;;;;;;;;11.75;77.60;100139.28;5094344;28;19965;-42
2023/05/10 01:34:31;;;;;;;;;;;;;;;11.63;78.66;100146.19;5094324;28;19958;-42
2023/05/10 01:37:08;;;;;;;;;;;;;;;11.43;78.99;100140.81;5085611;28;19992;-42
2023/05/10 01:39:43;;;;;;;;;;;;;;;10.93;81.95;100147.13;5094178;28;20006;-42
2023/05/10 01:42:16;;;;;;;;;;;;;;;10.51;83.82;100148.91;5094482;28;19920;-42
2023/05/10 01:45:00;;;;;;;;;;;;;;;10.53;84.97;100149.53;5093934;28;19920;-42
2023/05/10 01:47:31;;;;;;;;;;;;;;;10.55;84.65;100141.34;5094173;28;19985;-42
2023/05/10 01:50:01;;;;;;;;;;;;;;;10.75;84.24;100141.47;5094087;28;19926;-42
2023/05/10 01:52:29;;;;;;;;;;;;;;;10.78;83.54;100140.28;5093846;28;20501;-42
2023/05/10 01:55:15;;;;;;;;;;;;;;;10.73;83.42;100135.53;5093737;28;19919;-42
2023/05/10 01:57:42;;;;;;;;;;;;;;;10.81;83.29;100126.56;5093673;28;19913;-42
2023/05/10 02:00:09;;;;;;;;;;;;;;;11.02;82.51;100133.63;5093896;28;19912;-42
2023/05/10 02:02:38;;;;;;;;;;;;;;;11.02;81.49;100129.13;5093653;28;20072;-42
2023/05/10 02:05:05;;;;;;;;;;;;;;;10.72;83.03;100139.22;5093559;28;19919;-42
2023/05/10 02:07:31;;;;;;;;;;;;;;;10.72;82.82;100144.53;5093758;28;20020;-43
2023/05/10 02:09:58;;;;;;;;;;;;;;;10.77;82.72;100136.78;5093956;28;19962;-42
2023/05/10 02:12:23;;;;;;;;;;;;;;;10.98;81.64;100153.69;5093806;28;19912;-43
2023/05/10 02:14:50;;;;;;;;;;;;;;;11.11;81.08;100140.44;5093228;28;19916;-42
2023/05/10 02:17:16;;;;;;;;;;;;;;;11.05;80.47;100136.75;5092429;28;19920;-42
2023/05/10 02:19:43;;;;;;;;;;;;;;;11.16;80.82;100140.69;5094060;28;20364;-42
2023/05/10 02:22:08;;;;;;;;;;;;;;;10.78;81.48;100141.09;5093170;28;19917;-42
2023/05/10 02:24:34;;;;;;;;;;;;;;;10.75;82.18;100152.13;5092869;28;19923;-42
2023/05/10 02:27:01;;;;;;;;;;;;;;;10.79;82.71;100141.91;5093289;28;20368;-42
2023/05/10 02:29:27;;;;;;;;;;;;;;;11.11;81.06;100145.78;5093337;28;19920;-42
2023/05/10 02:31:53;;;;;;;;;;;;;;;11.29;80.07;100146.09;5093400;28;19919;-42
2023/05/10 02:34:19;;;;;;;;;;;;;;;10.92;82.01;100142.81;5093020;28;19969;-42
2023/05/10 02:36:45;;;;;;;;;;;;;;;10.96;81.54;100136.06;5093142;28;19923;-43
2023/05/10 02:39:13;;;;;;;;;;;;;;;11.71;78.47;100149.50;5093191;28;19919;-42
2023/05/10 02:41:40;;;;;;;;;;;;;;;11.69;78.84;100148.06;5093061;28;20379;-43
2023/05/10 02:44:07;;;;;;;;;;;;;;;11.87;77.55;100142.97;5087556;28;19913;-42
2023/05/10 02:46:33;;;;;;;;;;;;;;;11.48;77.96;100147.19;5072867;28;19919;-42
2023/05/10 02:48:58;;;;;;;;;;;;;;;10.95;81.09;100145.09;5072900;28;20304;-42
2023/05/10 02:51:25;;;;;;;;;;;;;;;11.23;79.62;100146.88;5088212;28;20243;-42
2023/05/10 02:53:51;;;;;;;;;;;;;;;11.27;79.98;100137.47;5108332;28;20379;-42
2023/05/10 02:56:35;;;;;;;;;;;;;;;11.58;77.91;100148.66;5092715;28;19938;-42
2023/05/10 02:59:01;;;;;;;;;;;;;;;11.40;78.84;100150.00;5090139;28;19916;-42
2023/05/10 03:01:26;;;;;;;;;;;;;;;11.76;77.34;100145.41;5092040;28;19931;-42
2023/05/10 03:03:51;;;;;;;;;;;;;;;11.39;79.54;100143.03;5092726;28;19916;-43
2023/05/10 03:06:17;;;;;;;;;;;;;;;11.46;80.02;100141.25;5092395;28;20377;-42
2023/05/10 03:08:43;;;;;;;;;;;;;;;11.38;79.14;100141.38;5092829;28;19912;-43
2023/05/10 03:11:28;;;;;;;;;;;;;;;11.08;81.06;100146.16;5092372;28;19982;-42
2023/05/10 03:13:53;;;;;;;;;;;;;;;11.09;80.14;100145.16;5092932;28;19969;-41
2023/05/10 03:16:24;;;;;;;;;;;;;;;11.33;79.85;100142.00;5092714;28;19912;-41
2023/05/10 03:19:22;;;;;;;;;;;;;;;11.14;80.35;100143.56;5090440;28;19916;-41
2023/05/10 03:21:51;;;;;;;;;;;;;;;11.01;80.25;100140.81;5059719;28;19917;-41
2023/05/10 03:24:17;;;;;;;;;;;;;;;11.41;79.19;100149.00;5071572;28;19916;-41
2023/05/10 03:26:43;;;;;;;;;;;;;;;11.43;78.17;100152.28;5074239;28;19927;-41
2023/05/10 03:29:10;;;;;;;;;;;;;;;11.98;77.15;100148.78;5092155;28;19920;-37
2023/05/10 03:31:35;;;;;;;;;;;;;;;11.85;77.33;100161.03;5092014;28;19973;-37
2023/05/10 03:34:01;;;;;;;;;;;;;;;11.91;76.57;100154.91;5091785;28;19916;-37
2023/05/10 03:36:26;;;;;;;;;;;;;;;11.97;76.53;100161.28;5091915;28;19977;-36
2023/05/10 03:38:51;;;;;;;;;;;;;;;12.26;75.50;100162.78;5091748;28;19915;-36
2023/05/10 03:41:17;;;;;;;;;;;;;;;12.17;76.18;100163.19;5087384;28;19949;-37
2023/05/10 03:43:42;;;;;;;;;;;;;;;12.20;76.06;100160.09;5090496;28;19916;-36
2023/05/10 03:46:07;;;;;;;;;;;;;;;11.90;76.04;100171.94;5090816;28;20000;-36
2023/05/10 03:48:33;;;;;;;;;;;;;;;12.03;75.99;100163.16;5092361;28;19912;-36
2023/05/10 03:50:58;;;;;;;;;;;;;;;12.36;74.62;100170.38;5092618;28;19912;-36
2023/05/10 03:53:24;;;;;;;;;;;;;;;11.70;77.34;100163.84;5092759;28;19912;-36
2023/05/10 03:55:49;;;;;;;;;;;;;;;12.06;75.52;100169.94;5089523;28;20392;-36
2023/05/10 03:58:14;;;;;;;;;;;;;;;11.73;77.39;100175.97;5086836;28;20414;-36
2023/05/10 04:00:43;;;;;;;;;;;;;;;11.91;76.95;100172.75;5091282;28;19916;-36
2023/05/10 04:03:09;;;;;;;;;;;;;;;12.10;75.92;100171.97;5091169;28;19928;-36
2023/05/10 04:05:34;;;;;;;;;;;;;;;12.17;75.47;100179.19;5090864;28;19920;-36
2023/05/10 04:08:00;;;;;;;;;;;;;;;12.42;74.60;100185.56;5090684;28;19912;-37
2023/05/10 04:10:25;;;;;;;;;;;;;;;11.93;76.29;100186.72;5090900;28;19927;-36
2023/05/10 04:12:50;;;;;;;;;;;;;;;12.00;75.79;100184.09;5090878;28;19908;-36
2023/05/10 04:15:16;;;;;;;;;;;;;;;11.32;77.83;100185.63;5090894;28;19981;-36
2023/05/10 04:17:41;;;;;;;;;;;;;;;10.89;79.95;100185.81;5091165;28;19931;-36
2023/05/10 04:20:07;;;;;;;;;;;;;;;11.14;79.14;100185.34;5091701;28;19919;-43
2023/05/10 04:22:32;;;;;;;;;;;;;;;10.84;81.57;100184.75;5091602;28;20003;-43
2023/05/10 04:24:57;;;;;;;;;;;;;;;10.87;80.79;100195.84;5091728;28;19913;-42
2023/05/10 04:27:22;;;;;;;;;;;;;;;11.19;80.25;100190.09;5091276;28;19924;-42
2023/05/10 04:29:48;;;;;;;;;;;;;;;11.78;78.00;100194.84;5091424;28;19912;-42
2023/05/10 04:32:13;;;;;;;;;;;;;;;11.91;77.90;100194.09;5091408;28;19919;-43
2023/05/10 04:34:38;;;;;;;;;;;;;;;12.23;79.82;100197.06;5090788;28;19918;-43
2023/05/10 04:37:04;;;;;;;;;;;;;;;12.01;75.84;100202.53;5093486;28;19912;-43
2023/05/10 04:39:29;;;;;;;;;;;;;;;12.02;74.80;100201.50;5095740;28;19923;-43
2023/05/10 04:41:54;;;;;;;;;;;;;;;11.79;75.61;100198.34;5095589;28;19920;-42
2023/05/10 04:44:20;;;;;;;;;;;;;;;11.68;77.03;100200.56;5095806;28;19916;-43
2023/05/10 04:46:45;;;;;;;;;;;;;;;11.50;75.71;100202.97;5095258;28;19984;-42
2023/05/10 04:49:10;;;;;;;;;;;;;;;11.92;75.07;100204.56;5094619;28;20017;-42
2023/05/10 04:51:36;;;;;;;;;;;;;;;12.18;74.14;100202.16;5094141;28;19947;-42
2023/05/10 04:54:01;;;;;;;;;;;;;;;12.56;72.67;100201.59;5093604;28;20022;-42
2023/05/10 04:56:26;;;;;;;;;;;;;;;12.35;73.42;100195.41;5094142;28;20371;-43
2023/05/10 04:58:52;;;;;;;;;;;;;;;12.28;71.39;100200.75;5094758;28;19919;-43
2023/05/10 05:01:17;;;;;;;;;;;;;;;11.80;72.92;100197.31;5095166;28;19916;-43
2023/05/10 05:03:42;;;;;;;;;;;;;;;11.90;73.69;100200.47;5095200;28;19936;-43
2023/05/10 05:06:08;;;;;;;;;;;;;;;12.23;72.71;100194.38;5095159;28;20006;-43
2023/05/10 05:08:33;;;;;;;;;;;;;;;11.69;74.47;100199.56;5095195;28;19912;-43
2023/05/10 05:10:59;;;;;;;;;;;;;;;12.07;72.73;100200.91;5095310;28;20011;-43
2023/05/10 05:13:24;;;;;;;;;;;;;;;11.75;73.76;100208.59;5095226;28;19970;-43
2023/05/10 05:15:50;;;;;;;;;;;;;;;12.23;72.35;100205.06;5094449;28;19943;-42
2023/05/10 05:18:15;;;;;;;;;;;;;;;11.89;73.85;100198.78;5097481;28;19923;-43
2023/05/10 05:20:40;;;;;;;;;;;;;;;12.27;73.57;100198.28;5094442;28;19920;-42
2023/05/10 05:23:05;;;;;;;;;;;;;;;12.55;72.45;100207.97;5094605;28;19920;-43
2023/05/10 05:25:31;;;;;;;;;;;;;;;12.65;72.09;100190.50;5094687;28;20419;-43
2023/05/10 05:27:56;;;;;;;;;;;;;;;12.64;71.83;100191.53;5094519;28;19928;-43
2023/05/10 05:30:21;;;;;;;;;;;;;;;11.87;72.96;100196.31;5094287;28;19912;-42
2023/05/10 05:32:47;;;;;;;;;;;;;;;11.79;73.66;100187.69;5094651;28;19956;-42
2023/05/10 05:35:12;;;;;;;;;;;;;;;11.59;74.95;100196.41;5094360;28;19919;-43
2023/05/10 05:37:38;;;;;;;;;;;;;;;11.26;75.80;100193.59;5094171;28;19924;-43
2023/05/10 05:40:03;;;;;;;;;;;;;;;11.88;73.89;100189.97;5094061;28;19912;-43
2023/05/10 05:42:30;;;;;;;;;;;;;;;11.66;75.36;100197.28;5093456;28;20292;-42
2023/05/10 05:44:56;;;;;;;;;;;;;;;11.61;75.17;100202.38;5093816;28;19965;-43
2023/05/10 05:47:21;;;;;;;;;;;;;;;12.18;73.07;100197.63;5093948;28;19915;-43
2023/05/10 05:49:46;;;;;;;;;;;;;;;11.81;74.65;100198.97;5093652;28;20223;-43
2023/05/10 05:52:12;;;;;;;;;;;;;;;11.99;73.65;100201.91;5094457;28;20007;-43
2023/05/10 05:54:37;;;;;;;;;;;;;;;12.05;74.68;100213.63;5094548;28;19927;-43
2023/05/10 05:57:03;;;;;;;;;;;;;;;13.07;70.43;100211.63;5094000;28;20395;-42
2023/05/10 05:59:28;;;;;;;;;;;;;;;12.23;72.63;100211.19;5094523;28;20092;-43
2023/05/10 06:01:53;;;;;;;;;;;;;;;11.71;75.21;100226.00;5094025;28;19923;-43
2023/05/10 06:04:19;;;;;;;;;;;;;;;12.00;74.84;100221.44;5094121;28;19912;-43
2023/05/10 06:06:44;;;;;;;;;;;;;;;12.59;72.70;100218.03;5093962;28;19919;-43
2023/05/10 06:09:10;;;;;;;;;;;;;;;12.66;70.70;100215.34;5093400;28;19919;-44
2023/05/10 06:11:35;;;;;;;;;;;;;;;12.86;70.82;100216.16;5093425;28;19912;-42
2023/05/10 06:14:01;;;;;;;;;;;;;;;12.44;72.04;100223.56;5092968;28;20211;-42
2023/05/10 06:16:27;;;;;;;;;;;;;;;12.38;72.22;100210.22;5093216;28;19960;-43
2023/05/10 06:18:52;;;;;;;;;;;;;;;12.51;71.55;100221.72;5093351;28;19966;-42
2023/05/10 06:21:18;;;;;;;;;;;;;;;12.99;70.76;100219.84;5092915;28;19962;-42
2023/05/10 06:23:43;;;;;;;;;;;;;;;12.33;72.09;100218.81;5092918;28;20357;-42
2023/05/10 06:26:09;;;;;;;;;;;;;;;12.72;70.69;100225.22;5092988;28;19920;-42
2023/05/10 06:28:34;;;;;;;;;;;;;;;12.70;71.01;100230.75;5093032;28;20306;-42
2023/05/10 06:31:00;;;;;;;;;;;;;;;12.41;71.41;100234.63;5093210;28;19916;-46
2023/05/10 06:33:25;;;;;;;;;;;;;;;12.49;70.43;100242.44;5093340;28;19912;-43
2023/05/10 06:35:51;;;;;;;;;;;;;;;12.71;70.47;100231.56;5093148;28;19919;-42
2023/05/10 06:38:16;;;;;;;;;;;;;;;12.84;69.98;100233.44;5092726;28;19932;-43
2023/05/10 06:40:42;;;;;;;;;;;;;;;12.94;69.06;100244.50;5092658;28;19912;-42
2023/05/10 06:43:07;;;;;;;;;;;;;;;12.62;71.07;100233.63;5093148;28;20413;-42
2023/05/10 06:45:32;;;;;;;;;;;;;;;13.10;69.01;100221.91;5092687;28;19912;-42
2023/05/10 06:47:58;;;;;;;;;;;;;;;12.57;69.73;100228.09;5092339;28;20516;-42
2023/05/10 06:50:23;;;;;;;;;;;;;;;12.86;69.30;100237.53;5092808;28;20368;-43
2023/05/10 06:52:48;;;;;;;;;;;;;;;13.04;68.87;100228.03;5092333;28;20023;-40
2023/05/10 06:55:13;;;;;;;;;;;;;;;13.53;67.67;100228.59;5092562;28;19920;-43
2023/05/10 06:57:39;;;;;;;;;;;;;;;13.65;67.71;100235.75;5092360;28;19916;-42
2023/05/10 07:00:04;;;;;;;;;;;;;;;12.80;68.64;100232.19;5092305;28;19967;-42
2023/05/10 07:02:30;;;;;;;;;;;;;;;13.01;68.36;100220.47;5092212;28;20010;-43
2023/05/10 07:04:55;;;;;;;;;;;;;;;12.56;69.67;100229.09;5092416;28;19912;-42
2023/05/10 07:07:20;;;;;;;;;;;;;;;13.35;67.68;100222.06;5092320;28;20396;-43
2023/05/10 07:09:46;;;;;;;;;;;;;;;13.04;68.64;100222.69;5092369;28;19922;-43
2023/05/10 07:12:11;;;;;;;;;;;;;;;13.27;67.42;100223.09;5092387;28;19976;-43
2023/05/10 07:14:36;;;;;;;;;;;;;;;12.78;68.88;100223.56;5092531;28;19923;-43
2023/05/10 07:17:01;;;;;;;;;;;;;;;13.31;68.86;100220.84;5092078;28;19968;-42
2023/05/10 07:19:27;;;;;;;;;;;;;;;13.24;65.81;100215.47;5091961;28;19931;-42
2023/05/10 07:21:52;;;;;;;;;;;;;;;13.53;64.90;100216.03;5091889;28;19916;-42
2023/05/10 07:24:18;;;;;;;;;;;;;;;14.18;63.64;100229.28;5091671;28;20021;-44
2023/05/10 07:26:43;;;;;;;;;;;;;;;14.39;63.18;100228.16;5091780;28;19927;-44
2023/05/10 07:29:09;;;;;;;;;;;;;;;14.06;62.65;100223.81;5091623;28;19923;-44
2023/05/10 07:31:35;;;;;;;;;;;;;;;13.54;65.41;100225.72;5091804;28;19912;-42
2023/05/10 07:34:00;;;;;;;;;;;;;;;13.81;64.29;100225.59;5091707;28;19912;-42
2023/05/10 07:36:26;;;;;;;;;;;;;;;13.94;62.99;100224.72;5091628;28;19916;-45
2023/05/10 07:38:51;;;;;;;;;;;;;;;13.37;65.22;100228.03;5091415;28;20345;-42
2023/05/10 07:41:16;;;;;;;;;;;;;;;13.82;64.58;100232.59;5092057;28;19966;-43
2023/05/10 07:43:42;;;;;;;;;;;;;;;14.52;63.05;100231.78;5091630;28;19923;-42
2023/05/10 07:46:07;;;;;;;;;;;;;;;14.79;61.49;100235.06;5091575;28;19912;-43
2023/05/10 07:48:32;;;;;;;;;;;;;;;14.53;60.93;100238.78;5091791;28;19916;-43
2023/05/10 07:50:57;;;;;;;;;;;;;;;15.28;60.05;100248.66;5091180;28;20389;-42
2023/05/10 07:53:23;;;;;;;;;;;;;;;15.53;58.96;100240.53;5091030;28;19916;-42
2023/05/10 07:55:51;;;;;;;;;;;;;;;15.73;57.16;100251.06;5091156;28;20037;-42
2023/05/10 07:58:17;;;;;;;;;;;;;;;15.93;57.21;100240.09;5091532;28;19916;-42
2023/05/10 08:00:42;;;;;;;;;;;;;;;15.50;57.27;100243.66;5091261;28;19916;-42
2023/05/10 08:03:07;;;;;;;;;;;;;;;14.93;58.59;100252.69;5091117;28;19920;-42
2023/05/10 08:05:32;;;;;;;;;;;;;;;14.78;59.70;100247.66;5091022;28;19912;-42
2023/05/10 08:07:59;;;;;;;;;;;;;;;15.14;57.96;100266.75;5090933;28;19923;-42
2023/05/10 08:10:24;;;;;;;;;;;;;;;14.94;59.75;100254.31;5090927;28;19912;-43
2023/05/10 08:12:49;;;;;;;;;;;;;;;14.81;57.12;100257.94;5090478;28;20006;-42
2023/05/10 08:15:15;;;;;;;;;;;;;;;15.08;57.03;100249.69;5090840;28;19947;-42
2023/05/10 08:17:40;;;;;;;;;;;;;;;14.95;57.50;100255.97;5091408;28;20311;-42
2023/05/10 08:20:07;;;;;;;;;;;;;;;14.90;58.09;100261.16;5090907;28;19923;-42
2023/05/10 08:22:32;;;;;;;;;;;;;;;14.73;57.64;100250.16;5090574;28;19916;-43
2023/05/10 08:24:57;;;;;;;;;;;;;;;14.64;57.67;100256.81;5090944;28;19930;-42
2023/05/10 08:27:23;;;;;;;;;;;;;;;15.29;58.60;100264.53;5090836;28;20324;-42
2023/05/10 08:29:48;;;;;;;;;;;;;;;15.69;55.62;100260.56;5090430;28;19962;-42
2023/05/10 08:32:13;;;;;;;;;;;;;;;14.98;57.25;100262.75;5090993;28;19912;-42
2023/05/10 08:34:39;;;;;;;;;;;;;;;14.44;58.98;100267.66;5090848;28;19919;-42
2023/05/10 08:37:04;;;;;;;;;;;;;;;14.28;59.10;100252.94;5090432;28;19911;-42
2023/05/10 08:39:29;;;;;;;;;;;;;;;14.39;58.03;100257.63;5090955;28;20007;-43
2023/05/10 08:41:57;;;;;;;;;;;;;;;15.09;56.38;100253.16;5090966;28;19927;-42
2023/05/10 08:44:23;;;;;;;;;;;;;;;15.47;55.40;100268.25;5091409;28;20367;-42
2023/05/10 08:46:50;;;;;;;;;;;;;;;15.29;55.70;100264.53;5091086;28;19912;-43
2023/05/10 08:49:18;;;;;;;;;;;;;;;15.41;56.38;100265.41;5091223;28;19939;-43
2023/05/10 08:51:49;;;;;;;;;;;;;;;14.92;57.08;100252.91;5091223;28;19994;-43
2023/05/10 08:54:14;;;;;;;;;;;;;;;14.90;57.59;100255.00;5090611;28;19935;-43
2023/05/10 08:56:40;;;;;;;;;;;;;;;14.67;57.86;100251.03;5090657;28;20364;-44
2023/05/10 08:59:05;;;;;;;;;;;;;;;15.03;57.04;100260.22;5090509;28;19941;-42
2023/05/10 09:01:31;;;;;;;;;;;;;;;15.02;57.20;100250.53;5090187;28;19916;-42
2023/05/10 09:03:57;;;;;;;;;;;;;;;15.55;56.24;100254.53;5090483;28;19916;-43
2023/05/10 09:06:23;;;;;;;;;;;;;;;16.08;54.87;100253.13;5090338;28;20375;-42
2023/05/10 09:08:49;;;;;;;;;;;;;;;15.58;55.10;100254.91;5090336;28;19952;-43
2023/05/10 09:11:14;;;;;;;;;;;;;;;15.84;54.72;100258.38;5090715;28;20299;-44
2023/05/10 09:13:39;;;;;;;;;;;;;;;15.56;54.04;100245.47;5090581;28;19964;-43
2023/05/10 09:16:05;;;;;;;;;;;;;;;15.34;54.73;100253.13;5090643;28;19912;-43
2023/05/10 09:18:30;;;;;;;;;;;;;;;15.59;55.18;100245.84;5090564;28;20002;-42
2023/05/10 09:20:56;;;;;;;;;;;;;;;15.63;55.19;100238.97;5090123;28;20069;-43
2023/05/10 09:23:21;;;;;;;;;;;;;;;16.05;54.48;100237.44;5091151;28;19916;-43
2023/05/10 09:25:46;;;;;;;;;;;;;;;16.09;52.59;100233.25;5092873;28;20045;-43
2023/05/10 09:28:12;;;;;;;;;;;;;;;15.43;53.37;100195.47;5094173;28;19916;-42
2023/05/10 09:30:37;;;;;;;;;;;;;;;16.19;54.32;100230.84;5094299;28;19918;-42
2023/05/10 09:33:03;;;;;;;;;;;;;;;16.54;52.68;100222.88;5094154;28;19912;-43
2023/05/10 09:35:30;;;;;;;;;;;;;;;16.16;52.21;100218.72;5093707;28;20448;-44
2023/05/10 09:37:56;;;;;;;;;;;;;;;16.30;52.72;100219.34;5094081;28;20275;-42
2023/05/10 09:40:25;;;;;;;;;;;;;;;15.93;53.32;100223.97;5094192;28;20363;-43
2023/05/10 09:42:51;;;;;;;;;;;;;;;16.07;51.60;100221.94;5093681;28;19916;-42
2023/05/10 09:45:17;;;;;;;;;;;;;;;15.90;50.56;100216.41;5094189;28;19922;-42
2023/05/10 09:47:42;;;;;;;;;;;;;;;16.58;51.10;100210.63;5093349;28;19912;-43
2023/05/10 09:50:08;;;;;;;;;;;;;;;15.78;52.04;100217.16;5093708;28;19912;-42
2023/05/10 09:52:48;;;;;;;;;;;;;;;15.66;54.05;100223.47;5093618;28;19934;-42
2023/05/10 09:55:14;;;;;;;;;;;;;;;15.98;52.35;100198.09;5093304;28;19912;-43
2023/05/10 09:57:40;;;;;;;;;;;;;;;15.99;52.36;100197.06;5093517;28;20018;-43
2023/05/10 10:00:06;;;;;;;;;;;;;;;15.94;52.79;100196.94;5093700;28;20342;-43
2023/05/10 10:02:32;;;;;;;;;;;;;;;16.28;51.25;100199.09;5093401;28;19920;-43
2023/05/10 10:04:57;;;;;;;;;;;;;;;16.51;51.58;100199.19;5093342;28;20352;-42
2023/05/10 10:07:24;;;;;;;;;;;;;;;16.55;51.07;100200.34;5093746;28;19991;-43
2023/05/10 10:09:50;;;;;;;;;;;;;;;15.82;52.24;100196.88;5093430;28;19962;-43
2023/05/10 10:12:15;;;;;;;;;;;;;;;16.29;52.65;100187.34;5093812;28;19912;-43
2023/05/10 10:14:41;;;;;;;;;;;;;;;16.35;52.03;100189.91;5093561;28;19912;-43
2023/05/10 10:17:06;;;;;;;;;;;;;;;16.21;51.98;100183.13;5093481;28;19923;-44
2023/05/10 10:19:33;;;;;;;;;;;;;;;15.77;54.21;100186.00;5093130;28;20082;-44
2023/05/10 10:21:58;;;;;;;;;;;;;;;15.98;53.12;100183.88;5093342;28;19916;-43
2023/05/10 10:24:24;;;;;;;;;;;;;;;15.87;54.19;100182.78;5093187;28;19922;-43
2023/05/10 10:26:52;;;;;;;;;;;;;;;15.62;54.01;100175.63;5093295;28;19958;-42
2023/05/10 10:29:20;;;;;;;;;;;;;;;16.53;52.36;100177.47;5092942;28;19990;-43
2023/05/10 10:31:55;;;;;;;;;;;;;;;16.51;52.07;100188.44;5092940;28;19912;-43
2023/05/10 10:34:27;;;;;;;;;;;;;;;16.56;49.90;100187.72;5092552;28;19997;-42
2023/05/10 10:36:54;;;;;;;;;;;;;;;16.23;51.40;100176.47;5091728;28;19942;-44
2023/05/10 10:39:20;;;;;;;;;;;;;;;16.94;50.26;100183.78;5093144;28;19916;-42
2023/05/10 10:41:55;;;;;;;;;;;;;;;16.74;49.58;100193.00;5093003;28;20399;-42
2023/05/10 10:44:47;;;;;;;;;;;;;;;16.60;49.75;100175.47;5092817;28;20368;-43
2023/05/10 10:47:18;;;;;;;;;;;;;;;16.33;49.04;100191.19;5091228;28;20398;-44
2023/05/10 10:49:43;;;;;;;;;;;;;;;16.14;49.81;100177.84;5092685;28;19912;-42
2023/05/10 10:52:20;;;;;;;;;;;;;;;16.26;49.21;100175.19;5092652;28;19923;-42
2023/05/10 10:54:52;;;;;;;;;;;;;;;16.86;48.93;100178.78;5092528;28;19919;-42
2023/05/10 10:57:18;;;;;;;;;;;;;;;17.25;47.91;100163.78;5092352;28;19946;-43
2023/05/10 10:59:44;;;;;;;;;;;;;;;17.55;46.22;100170.81;5092174;28;20324;-42
2023/05/10 11:02:10;;;;;;;;;;;;;;;17.43;47.11;100168.16;5092729;28;19956;-42
2023/05/10 11:04:42;;;;;;;;;;;;;;;17.24;47.62;100166.69;5093253;28;20387;-44
2023/05/10 11:07:17;;;;;;;;;;;;;;;17.77;46.39;100168.28;5080662;28;20010;-42
2023/05/10 11:09:43;;;;;;;;;;;;;;;17.96;45.93;100163.56;5083569;28;19920;-42
2023/05/10 11:12:08;;;;;;;;;;;;;;;18.18;46.11;100160.94;5092696;28;19934;-43
2023/05/10 11:14:34;;;;;;;;;;;;;;;17.88;45.13;100167.44;5093110;28;19919;-43
2023/05/10 11:17:00;;;;;;;;;;;;;;;17.71;46.24;100153.91;5092754;28;19978;-43
2023/05/10 11:19:27;;;;;;;;;;;;;;;18.02;44.74;100156.38;5092589;28;19919;-42
2023/05/10 11:22:05;;;;;;;;;;;;;;;17.75;44.86;100155.06;5091946;28;19924;-42
2023/05/10 11:24:30;;;;;;;;;;;;;;;17.61;46.23;100153.72;5090451;28;19966;-42
2023/05/10 11:26:56;;;;;;;;;;;;;;;18.71;44.41;100159.63;5091252;28;19947;-42
2023/05/10 11:29:22;;;;;;;;;;;;;;;18.84;43.13;100147.72;5091516;28;19916;-42
2023/05/10 11:31:48;;;;;;;;;;;;;;;18.70;42.51;100143.75;5091589;28;19954;-42
2023/05/10 11:34:23;;;;;;;;;;;;;;;18.56;43.19;100145.94;5091808;28;19919;-43
2023/05/10 11:36:50;;;;;;;;;;;;;;;17.98;42.69;100148.78;5089521;28;19961;-42
2023/05/10 11:39:16;;;;;;;;;;;;;;;17.73;42.17;100153.69;5091417;28;19912;-42
2023/05/10 11:41:41;;;;;;;;;;;;;;;17.19;44.08;100141.34;5091696;28;19916;-43
2023/05/10 11:44:08;;;;;;;;;;;;;;;17.32;44.97;100139.44;5092109;28;19916;-42
2023/05/10 11:46:34;;;;;;;;;;;;;;;17.66;43.21;100156.50;5090978;28;20364;-42
2023/05/10 11:49:06;;;;;;;;;;;;;;;17.34;42.72;100146.22;5091967;28;19912;-43
2023/05/10 11:51:36;;;;;;;;;;;;;;;17.97;41.97;100143.63;5091226;28;19912;-42
2023/05/10 11:54:04;;;;;;;;;;;;;;;18.26;43.04;100149.81;5091325;28;19928;-43
2023/05/10 11:56:32;;;;;;;;;;;;;;;18.87;40.72;100149.94;5091246;28;19912;-42
2023/05/10 11:58:57;;;;;;;;;;;;;;;18.54;42.17;100139.97;5090632;28;20341;-43
2023/05/10 12:01:24;;;;;;;;;;;;;;;18.25;43.57;100141.94;5090811;28;20011;-46
2023/05/10 12:03:50;;;;;;;;;;;;;;;18.74;41.30;100142.97;5090799;28;19927;-48
2023/05/10 12:06:16;;;;;;;;;;;;;;;18.27;42.81;100139.84;5097614;28;19919;-46
2023/05/10 12:08:44;;;;;;;;;;;;;;;18.88;41.57;100134.56;5100458;28;19920;-48
2023/05/10 12:11:15;;;;;;;;;;;;;;;18.33;41.67;100139.69;5091091;28;19912;-41
2023/05/10 12:13:41;;;;;;;;;;;;;;;18.36;41.18;100128.41;5091147;28;19912;-41
2023/05/10 12:16:20;;;;;;;;;;;;;;;18.16;41.99;100125.38;5093493;28;19915;-41
2023/05/10 12:18:47;;;;;;;;;;;;;;;18.09;43.00;100133.63;5093982;28;19981;-42
2023/05/10 12:21:15;;;;;;;;;;;;;;;17.91;44.13;100133.84;5091460;28;19916;-43
2023/05/10 12:23:40;;;;;;;;;;;;;;;17.56;43.99;100134.78;5091680;28;19916;-41
2023/05/10 12:26:06;;;;;;;;;;;;;;;17.88;43.66;100108.22;5091457;28;19943;-47
2023/05/10 12:28:31;;;;;;;;;;;;;;;18.64;41.92;100117.75;5091008;28;20010;-41
2023/05/10 12:31:00;;;;;;;;;;;;;;;18.49;42.17;100116.47;5088004;28;19938;-37
2023/05/10 12:33:26;;;;;;;;;;;;;;;18.07;43.88;100119.59;5089641;28;20232;-36
2023/05/10 12:35:52;;;;;;;;;;;;;;;18.14;42.69;100114.88;5070076;28;20336;-35